createdAt,value
2023-10-26T00:01:52.539Z,5.47
2023-10-26T00:04:20.190Z,5.00
2023-10-26T00:06:47.689Z,5.38
2023-10-26T00:09:15.138Z,5.22
2023-10-26T00:11:42.586Z,5.18
2023-10-26T00:14:09.980Z,4.65
2023-10-26T00:16:37.397Z,5.53
2023-10-26T00:19:05.112Z,5.07
2023-10-26T00:21:32.559Z,4.75
2023-10-26T00:24:00.019Z,5.65
2023-10-26T00:26:27.437Z,5.22
2023-10-26T00:28:54.816Z,4.72
2023-10-26T00:31:22.291Z,5.00
2023-10-26T00:33:49.823Z,4.57
2023-10-26T00:36:17.515Z,5.60
2023-10-26T00:38:44.927Z,6.13
2023-10-26T00:41:12.275Z,5.78
2023-10-26T00:43:40.026Z,5.30
2023-10-26T00:46:11.996Z,4.40
2023-10-26T00:48:40.862Z,4.88
2023-10-26T00:51:08.380Z,4.75
2023-10-26T00:53:35.926Z,4.95
2023-10-26T00:56:03.536Z,6.07
2023-10-26T00:58:32.403Z,4.88
2023-10-26T01:00:59.897Z,4.55
2023-10-26T01:03:29.913Z,5.65
2023-10-26T01:05:57.405Z,4.55
2023-10-26T01:08:25.115Z,4.93
2023-10-26T01:10:52.818Z,4.72
2023-10-26T01:13:20.440Z,5.72
2023-10-26T01:15:47.904Z,5.20
2023-10-26T01:18:15.464Z,5.65
2023-10-26T01:20:43.653Z,5.25
2023-10-26T01:23:11.476Z,5.10
2023-10-26T01:25:38.965Z,5.28
2023-10-26T01:28:08.480Z,5.97
2023-10-26T01:30:36.625Z,5.95
2023-10-26T01:33:04.325Z,5.90
2023-10-26T01:35:39.651Z,6.38
2023-10-26T01:38:07.384Z,5.30
2023-10-26T01:40:35.144Z,4.75
2023-10-26T01:43:02.540Z,5.32
2023-10-26T01:45:29.993Z,4.93
2023-10-26T01:47:57.615Z,4.50
2023-10-26T01:50:25.097Z,4.93
2023-10-26T01:52:52.791Z,4.75
2023-10-26T01:55:20.399Z,5.40
2023-10-26T01:57:47.762Z,4.35
2023-10-26T02:00:15.373Z,4.90
2023-10-26T02:02:42.863Z,4.53
2023-10-26T02:05:10.300Z,4.93
2023-10-26T02:07:37.930Z,4.45
2023-10-26T02:10:05.473Z,4.85
2023-10-26T02:12:32.897Z,4.72
2023-10-26T02:15:00.342Z,4.70
2023-10-26T02:17:27.785Z,4.07
2023-10-26T02:19:55.183Z,4.32
2023-10-26T02:22:22.566Z,4.45
2023-10-26T02:24:50.169Z,4.47
2023-10-26T02:27:17.762Z,5.40
2023-10-26T02:29:45.132Z,5.30
2023-10-26T02:32:12.736Z,5.05
2023-10-26T02:34:40.328Z,4.63
2023-10-26T02:37:07.742Z,4.35
2023-10-26T02:39:35.675Z,3.95
2023-10-26T02:42:03.173Z,4.10
2023-10-26T02:44:30.570Z,4.05
2023-10-26T02:46:58.004Z,3.95
2023-10-26T02:49:25.403Z,4.50
2023-10-26T02:51:52.747Z,4.28
2023-10-26T02:54:20.370Z,4.45
2023-10-26T02:56:47.888Z,4.68
2023-10-26T02:59:15.301Z,5.13
2023-10-26T03:01:42.658Z,5.03
2023-10-26T03:04:10.135Z,5.80
2023-10-26T03:06:38.177Z,5.60
2023-10-26T03:09:06.401Z,5.90
2023-10-26T03:11:34.053Z,5.50
2023-10-26T03:14:01.487Z,6.25
2023-10-26T03:16:28.877Z,5.82
2023-10-26T03:18:56.344Z,5.32
2023-10-26T03:21:23.998Z,4.88
2023-10-26T03:23:54.484Z,4.72
2023-10-26T03:26:22.280Z,5.72
2023-10-26T03:28:53.715Z,4.80
2023-10-26T03:31:21.188Z,4.60
2023-10-26T03:33:48.596Z,4.80
2023-10-26T03:36:16.504Z,4.53
2023-10-26T03:38:44.421Z,5.10
2023-10-26T03:41:11.884Z,3.90
2023-10-26T03:43:39.307Z,4.03
2023-10-26T03:46:06.845Z,4.50
2023-10-26T03:48:35.646Z,4.30
2023-10-26T03:51:03.730Z,4.00
2023-10-26T03:53:31.594Z,4.35
2023-10-26T03:55:59.541Z,4.25
2023-10-26T03:58:27.068Z,3.70
2023-10-26T04:00:54.500Z,4.38
2023-10-26T04:03:22.029Z,4.00
2023-10-26T04:05:49.450Z,3.60
2023-10-26T04:08:16.883Z,3.38
2023-10-26T04:10:44.259Z,4.20
2023-10-26T04:13:11.996Z,3.88
2023-10-26T04:15:39.404Z,3.03
2023-10-26T04:18:09.914Z,3.70
2023-10-26T04:20:37.456Z,3.47
2023-10-26T04:23:05.229Z,3.60
2023-10-26T04:25:50.719Z,3.80
2023-10-26T04:28:20.254Z,3.40
2023-10-26T04:30:48.770Z,3.95
2023-10-26T04:33:16.777Z,3.58
2023-10-26T04:35:44.793Z,5.35
2023-10-26T04:38:12.579Z,3.83
2023-10-26T04:40:40.965Z,4.28
2023-10-26T04:43:08.555Z,3.58
2023-10-26T04:45:36.314Z,4.32
2023-10-26T04:48:04.353Z,4.32
2023-10-26T04:50:32.741Z,4.47
2023-10-26T04:53:03.944Z,4.95
2023-10-26T04:55:37.618Z,4.40
2023-10-26T04:58:05.362Z,4.72
2023-10-26T05:00:33.650Z,5.32
2023-10-26T05:03:01.320Z,6.30
2023-10-26T05:05:28.899Z,6.10
2023-10-26T05:07:56.306Z,5.43
2023-10-26T05:10:23.770Z,5.28
2023-10-26T05:12:51.141Z,6.03
2023-10-26T05:15:20.236Z,6.63
2023-10-26T05:17:48.056Z,6.63
2023-10-26T05:20:15.528Z,6.63
2023-10-26T05:22:43.039Z,6.50
2023-10-26T05:25:12.609Z,6.90
2023-10-26T05:27:40.239Z,7.10
2023-10-26T05:30:07.992Z,7.05
2023-10-26T05:32:35.507Z,6.85
2023-10-26T05:35:02.952Z,7.35
2023-10-26T05:37:30.329Z,6.82
2023-10-26T05:39:57.774Z,7.18
2023-10-26T05:42:25.230Z,6.43
2023-10-26T05:44:52.597Z,7.18
2023-10-26T05:47:22.093Z,6.65
2023-10-26T05:49:50.062Z,6.65
2023-10-26T05:52:17.540Z,6.05
2023-10-26T05:54:45.273Z,5.25
2023-10-26T05:57:12.880Z,6.25
2023-10-26T05:59:40.782Z,5.70
2023-10-26T06:02:08.335Z,5.38
2023-10-26T06:04:35.892Z,5.00
2023-10-26T06:07:03.429Z,5.35
2023-10-26T06:09:31.293Z,4.88
2023-10-26T06:11:58.714Z,4.82
2023-10-26T06:14:26.522Z,5.05
2023-10-26T06:16:53.895Z,4.68
2023-10-26T06:19:21.325Z,4.75
2023-10-26T06:21:48.766Z,5.20
2023-10-26T06:24:16.288Z,5.65
2023-10-26T06:26:43.727Z,5.10
2023-10-26T06:29:11.483Z,5.97
2023-10-26T06:31:38.889Z,6.25
2023-10-26T06:34:06.494Z,5.57
2023-10-26T06:36:34.619Z,5.43
2023-10-26T06:39:03.616Z,5.47
2023-10-26T06:41:31.157Z,5.25
2023-10-26T06:43:58.621Z,5.28
2023-10-26T06:46:26.211Z,5.25
2023-10-26T06:48:53.946Z,4.90
2023-10-26T06:51:21.460Z,5.95
2023-10-26T06:53:48.948Z,5.05
2023-10-26T06:56:16.382Z,5.10
2023-10-26T06:58:44.841Z,5.70
2023-10-26T07:01:20.584Z,5.93
2023-10-26T07:03:49.205Z,5.20
2023-10-26T07:06:16.802Z,5.25
2023-10-26T07:08:45.227Z,5.93
2023-10-26T07:11:12.660Z,6.82
2023-10-26T07:13:40.188Z,5.40
2023-10-26T07:16:07.819Z,5.40
2023-10-26T07:18:35.840Z,5.15
2023-10-26T07:21:07.302Z,5.50
2023-10-26T07:23:35.082Z,5.68
2023-10-26T07:26:03.659Z,5.07
2023-10-26T07:28:31.164Z,5.38
2023-10-26T07:30:58.592Z,5.68
2023-10-26T07:33:26.338Z,5.20
2023-10-26T07:35:54.414Z,4.95
2023-10-26T07:38:35.480Z,5.53
2023-10-26T07:41:07.039Z,5.43
2023-10-26T07:43:35.552Z,5.45
2023-10-26T07:46:03.340Z,5.38
2023-10-26T07:48:32.494Z,6.25
2023-10-26T07:51:00.327Z,5.88
2023-10-26T07:53:30.055Z,4.82
2023-10-26T07:55:59.342Z,5.10
2023-10-26T07:58:28.966Z,4.40
2023-10-26T08:00:57.398Z,4.40
2023-10-26T08:03:25.633Z,5.15
2023-10-26T08:06:00.468Z,5.72
2023-10-26T08:08:28.034Z,7.70
2023-10-26T08:10:55.460Z,7.47
2023-10-26T08:13:23.432Z,5.10
2023-10-26T08:16:12.057Z,6.20
2023-10-26T08:18:38.608Z,5.53
2023-10-26T08:21:06.857Z,5.38
2023-10-26T08:23:34.394Z,5.68
2023-10-26T08:26:11.499Z,5.45
2023-10-26T08:28:39.263Z,4.95
2023-10-26T08:31:08.029Z,5.30
2023-10-26T08:33:35.737Z,4.20
2023-10-26T08:36:05.746Z,4.00
2023-10-26T08:38:34.262Z,4.28
2023-10-26T08:41:01.968Z,4.07
2023-10-26T08:43:30.500Z,4.07
2023-10-26T08:46:01.823Z,4.78
2023-10-26T08:48:31.761Z,4.90
2023-10-26T08:50:59.633Z,4.97
2023-10-26T08:53:27.031Z,4.68
2023-10-26T08:55:57.907Z,4.60
2023-10-26T08:58:25.410Z,4.65
2023-10-26T09:00:53.703Z,3.90
2023-10-26T09:03:23.999Z,4.50
2023-10-26T09:05:55.292Z,3.92
2023-10-26T09:08:24.696Z,3.85
2023-10-26T09:10:52.746Z,3.92
2023-10-26T09:13:27.288Z,4.65
2023-10-26T09:15:57.063Z,4.75
2023-10-26T09:18:25.450Z,3.75
2023-10-26T09:21:09.489Z,4.10
2023-10-26T09:23:38.623Z,3.75
2023-10-26T09:26:09.275Z,4.10
2023-10-26T09:28:50.321Z,4.22
2023-10-26T09:31:19.035Z,4.22
2023-10-26T09:33:49.872Z,4.00
2023-10-26T09:36:18.445Z,3.78
2023-10-26T09:38:46.091Z,3.72
2023-10-26T09:41:14.536Z,3.95
2023-10-26T09:43:42.543Z,3.42
2023-10-26T09:46:10.441Z,4.00
2023-10-26T09:48:38.304Z,4.68
2023-10-26T09:51:06.106Z,4.18
2023-10-26T09:53:35.603Z,4.13
2023-10-26T09:56:04.239Z,6.50
2023-10-26T09:58:36.305Z,5.35
2023-10-26T10:01:23.716Z,5.00
2023-10-26T10:03:51.473Z,4.53
2023-10-26T10:06:37.867Z,6.45
2023-10-26T10:09:05.304Z,3.83
2023-10-26T10:11:32.736Z,6.50
2023-10-26T10:14:00.398Z,8.13
2023-10-26T10:16:37.472Z,13.02
2023-10-26T10:19:18.261Z,10.30
2023-10-26T10:21:46.104Z,14.88
2023-10-26T10:24:33.484Z,7.20
2023-10-26T10:27:08.874Z,15.07
2023-10-26T10:29:36.379Z,5.15
2023-10-26T10:32:03.925Z,5.28
2023-10-26T10:34:31.848Z,3.50
2023-10-26T10:37:15.635Z,3.60
2023-10-26T10:40:01.879Z,5.30
2023-10-26T10:42:29.483Z,6.38
2023-10-26T10:44:58.506Z,5.18
2023-10-26T10:47:29.880Z,3.22
2023-10-26T10:50:16.557Z,3.50
2023-10-26T10:52:44.159Z,3.60
2023-10-26T10:55:11.892Z,3.40
2023-10-26T10:57:57.931Z,3.60
2023-10-26T11:00:29.432Z,3.42
2023-10-26T11:03:00.083Z,2.78
2023-10-26T11:05:43.764Z,3.17
2023-10-26T11:08:11.445Z,3.55
2023-10-26T11:10:39.147Z,3.80
2023-10-26T11:13:06.942Z,4.40
2023-10-26T11:15:34.389Z,3.38
2023-10-26T11:18:02.481Z,3.92
2023-10-26T11:20:43.610Z,2.90
2023-10-26T11:23:11.945Z,3.13
2023-10-26T11:25:39.870Z,3.00
2023-10-26T11:28:07.986Z,3.45
2023-10-26T11:30:51.968Z,2.88
2023-10-26T11:33:32.811Z,3.60
2023-10-26T11:36:00.584Z,3.80
2023-10-26T11:38:28.222Z,3.15
2023-10-26T11:40:56.832Z,3.30
2023-10-26T11:43:34.474Z,3.10
2023-10-26T11:46:04.688Z,2.90
2023-10-26T11:48:33.842Z,3.22
2023-10-26T11:51:04.098Z,3.83
2023-10-26T11:53:31.505Z,3.13
2023-10-26T11:55:58.900Z,3.10
2023-10-26T11:58:26.316Z,3.05
2023-10-26T12:00:53.775Z,2.40
2023-10-26T12:03:21.396Z,2.50
2023-10-26T12:05:48.809Z,2.45
2023-10-26T12:08:16.420Z,3.50
2023-10-26T12:10:43.832Z,2.45
2023-10-26T12:13:11.184Z,2.78
2023-10-26T12:15:38.625Z,2.50
2023-10-26T12:18:07.155Z,2.67
2023-10-26T12:20:34.597Z,3.15
2023-10-26T12:23:01.946Z,3.55
2023-10-26T12:25:29.370Z,2.75
2023-10-26T12:28:19.692Z,2.92
2023-10-26T12:30:46.669Z,3.03
2023-10-26T12:33:14.506Z,3.13
2023-10-26T12:35:41.941Z,3.95
2023-10-26T12:38:09.466Z,3.08
2023-10-26T12:40:37.011Z,2.92
2023-10-26T12:43:05.038Z,2.88
2023-10-26T12:45:32.685Z,2.70
2023-10-26T12:48:01.256Z,2.92
2023-10-26T12:50:28.687Z,2.40
2023-10-26T12:52:56.317Z,4.00
2023-10-26T12:55:25.265Z,3.70
2023-10-26T12:57:53.636Z,3.20
2023-10-26T13:00:21.649Z,2.92
2023-10-26T13:02:49.787Z,3.05
2023-10-26T13:05:17.311Z,3.05
2023-10-26T13:07:44.737Z,2.90
2023-10-26T13:10:12.185Z,3.20
2023-10-26T13:12:40.597Z,3.00
2023-10-26T13:15:08.259Z,3.17
2023-10-26T13:17:35.903Z,3.05
2023-10-26T13:20:05.297Z,3.45
2023-10-26T13:22:33.068Z,3.30
2023-10-26T13:25:00.490Z,3.30
2023-10-26T13:27:27.979Z,3.70
2023-10-26T13:29:55.379Z,4.25
2023-10-26T13:32:22.912Z,3.70
2023-10-26T13:34:50.321Z,3.83
2023-10-26T13:37:17.697Z,3.75
2023-10-26T13:39:45.229Z,3.80
2023-10-26T13:42:12.785Z,3.70
2023-10-26T13:44:40.395Z,4.93
2023-10-26T13:47:07.810Z,4.28
2023-10-26T13:49:35.430Z,4.15
2023-10-26T13:52:02.997Z,3.88
2023-10-26T13:54:30.393Z,4.15
2023-10-26T13:56:59.320Z,4.53
2023-10-26T13:59:26.706Z,3.80
2023-10-26T14:01:54.271Z,3.65
2023-10-26T14:04:21.905Z,3.70
2023-10-26T14:06:49.370Z,4.75
2023-10-26T14:09:16.981Z,4.13
2023-10-26T14:11:44.449Z,4.35
2023-10-26T14:14:11.842Z,4.75
2023-10-26T14:16:39.296Z,4.10
2023-10-26T14:19:08.607Z,4.47
2023-10-26T14:21:37.381Z,4.80
2023-10-26T14:24:05.060Z,3.97
2023-10-26T14:26:32.484Z,3.72
2023-10-26T14:28:59.845Z,3.95
2023-10-26T14:31:27.322Z,4.05
2023-10-26T14:33:55.764Z,4.32
2023-10-26T14:36:23.217Z,4.47
2023-10-26T14:38:53.518Z,5.18
2023-10-26T14:41:20.926Z,6.45
2023-10-26T14:43:48.417Z,6.30
2023-10-26T14:46:16.073Z,6.32
2023-10-26T14:48:43.524Z,4.95
2023-10-26T14:51:13.832Z,4.90
2023-10-26T14:53:41.271Z,3.97
2023-10-26T14:56:08.772Z,4.00
2023-10-26T14:58:36.163Z,4.07
2023-10-26T15:01:04.350Z,5.88
2023-10-26T15:03:31.929Z,5.50
2023-10-26T15:06:01.821Z,6.43
2023-10-26T15:08:29.330Z,5.00
2023-10-26T15:11:22.811Z,4.15
2023-10-26T15:13:44.364Z,4.18
2023-10-26T15:16:11.918Z,4.50
2023-10-26T15:18:39.522Z,4.80
2023-10-26T15:21:07.640Z,4.47
2023-10-26T15:23:35.127Z,4.00
2023-10-26T15:26:04.450Z,4.68
2023-10-26T15:28:35.203Z,4.13
2023-10-26T15:31:03.123Z,3.55
2023-10-26T15:33:31.125Z,3.72
2023-10-26T15:36:00.013Z,3.97
2023-10-26T15:38:30.543Z,4.13
2023-10-26T15:41:07.528Z,4.60
2023-10-26T15:43:35.766Z,5.03
2023-10-26T15:46:06.760Z,4.63
2023-10-26T15:49:34.722Z,4.75
2023-10-26T15:51:22.111Z,5.57
2023-10-26T15:53:49.516Z,5.93
2023-10-26T15:56:16.878Z,5.45
2023-10-26T15:58:44.377Z,6.60
2023-10-26T16:01:12.296Z,5.25
2023-10-26T16:03:39.860Z,4.85
2023-10-26T16:06:08.724Z,3.95
2023-10-26T16:08:36.750Z,4.25
2023-10-26T16:11:04.265Z,4.40
2023-10-26T16:13:34.763Z,4.10
2023-10-26T16:16:02.344Z,4.35
2023-10-26T16:18:29.749Z,4.28
2023-10-26T16:20:57.177Z,3.95
2023-10-26T16:23:24.713Z,4.65
2023-10-26T16:25:52.708Z,4.20
2023-10-26T16:28:20.303Z,3.85
2023-10-26T16:30:48.116Z,3.80
2023-10-26T16:33:15.576Z,3.90
2023-10-26T16:35:44.490Z,4.20
2023-10-26T16:38:11.930Z,6.00
2023-10-26T16:40:42.389Z,4.93
2023-10-26T16:43:11.136Z,5.78
2023-10-26T16:45:39.233Z,5.60
2023-10-26T16:48:06.931Z,4.90
2023-10-26T16:50:34.544Z,5.47
2023-10-26T16:53:02.625Z,5.22
2023-10-26T16:55:32.126Z,4.78
2023-10-26T16:57:59.557Z,5.25
2023-10-26T17:00:27.009Z,5.50
2023-10-26T17:02:54.550Z,5.30
2023-10-26T17:05:22.409Z,5.95
2023-10-26T17:07:50.073Z,6.00
2023-10-26T17:10:17.603Z,6.25
2023-10-26T17:12:46.956Z,6.05
2023-10-26T17:15:15.542Z,6.85
2023-10-26T17:17:42.991Z,6.15
2023-10-26T17:20:10.526Z,6.38
2023-10-26T17:22:37.938Z,5.95
2023-10-26T17:25:05.640Z,7.78
2023-10-26T17:27:33.174Z,6.80
2023-10-26T17:30:00.586Z,6.35
2023-10-26T17:32:28.185Z,6.45
2023-10-26T17:34:55.798Z,5.75
2023-10-26T17:37:23.287Z,5.65
2023-10-26T17:39:51.402Z,5.93
2023-10-26T17:42:20.722Z,5.40
2023-10-26T17:44:48.153Z,7.53
2023-10-26T17:47:15.755Z,5.93
2023-10-26T17:49:43.581Z,5.35
2023-10-26T17:52:11.139Z,5.82
2023-10-26T17:54:38.649Z,5.95
2023-10-26T17:57:06.981Z,6.60
2023-10-26T17:59:34.382Z,6.07
2023-10-26T18:02:06.580Z,6.53
2023-10-26T18:04:34.853Z,7.00
2023-10-26T18:07:02.467Z,5.90
2023-10-26T18:09:30.667Z,6.50
2023-10-26T18:11:58.527Z,5.43
2023-10-26T18:14:26.645Z,6.15
2023-10-26T18:16:56.125Z,5.53
2023-10-26T18:19:23.684Z,4.72
2023-10-26T18:21:51.104Z,4.40
2023-10-26T18:24:18.672Z,5.30
2023-10-26T18:26:46.909Z,4.88
2023-10-26T18:29:14.491Z,4.80
2023-10-26T18:31:43.427Z,4.53
2023-10-26T18:34:10.999Z,4.72
2023-10-26T18:36:40.490Z,5.10
2023-10-26T18:39:08.027Z,5.40
2023-10-26T18:41:35.398Z,4.97
2023-10-26T18:44:02.768Z,4.85
2023-10-26T18:46:30.364Z,6.00
2023-10-26T18:48:58.106Z,5.30
2023-10-26T18:51:25.557Z,6.35
2023-10-26T18:53:53.198Z,6.43
2023-10-26T18:56:22.820Z,6.85
2023-10-26T18:58:50.737Z,6.95
2023-10-26T19:01:18.279Z,7.93
2023-10-26T19:03:57.976Z,7.70
2023-10-26T19:06:30.166Z,7.40
2023-10-26T19:08:57.745Z,6.13
2023-10-26T19:11:25.240Z,5.97
2023-10-26T19:13:52.817Z,6.68
2023-10-26T19:16:20.586Z,5.95
2023-10-26T19:18:48.142Z,5.15
2023-10-26T19:21:15.748Z,7.25
2023-10-26T19:23:43.294Z,6.40
2023-10-26T19:26:11.337Z,5.25
2023-10-26T19:28:38.856Z,5.28
2023-10-26T19:31:11.147Z,5.63
2023-10-26T19:33:40.777Z,5.63
2023-10-26T19:36:08.481Z,5.80
2023-10-26T19:38:35.898Z,5.40
2023-10-26T19:41:03.578Z,6.32
2023-10-26T19:43:31.039Z,4.22
2023-10-26T19:45:58.543Z,3.80
2023-10-26T19:48:26.183Z,5.40
2023-10-26T19:50:53.562Z,5.25
2023-10-26T19:53:21.074Z,5.15
2023-10-26T19:55:49.598Z,5.43
2023-10-26T19:58:17.239Z,5.35
2023-10-26T20:00:45.558Z,5.60
2023-10-26T20:03:13.261Z,6.20
2023-10-26T20:05:40.668Z,5.35
2023-10-26T20:08:08.244Z,5.38
2023-10-26T20:10:35.639Z,7.95
2023-10-26T20:13:04.347Z,8.65
2023-10-26T20:15:31.854Z,10.68
2023-10-26T20:17:59.317Z,12.25
2023-10-26T20:20:29.624Z,10.65
2023-10-26T20:22:57.039Z,8.63
2023-10-26T20:25:24.518Z,9.07
2023-10-26T20:27:52.041Z,8.27
2023-10-26T20:30:20.517Z,9.27
2023-10-26T20:32:50.101Z,9.68
2023-10-26T20:35:17.836Z,9.00
2023-10-26T20:37:45.256Z,9.35
2023-10-26T20:40:13.480Z,10.82
2023-10-26T20:42:44.310Z,11.07
2023-10-26T20:45:12.619Z,10.18
2023-10-26T20:47:40.113Z,11.13
2023-10-26T20:50:08.204Z,8.82
2023-10-26T20:52:35.619Z,9.15
2023-10-26T20:55:03.135Z,9.25
2023-10-26T20:57:30.654Z,8.80
2023-10-26T20:59:58.126Z,9.65
2023-10-26T21:02:25.497Z,8.82
2023-10-26T21:04:52.867Z,8.65
2023-10-26T21:07:20.350Z,9.23
2023-10-26T21:09:47.857Z,9.02
2023-10-26T21:12:15.385Z,9.95
2023-10-26T21:14:42.797Z,8.18
2023-10-26T21:17:10.188Z,9.30
2023-10-26T21:19:37.617Z,9.68
2023-10-26T21:22:05.818Z,9.70
2023-10-26T21:24:33.331Z,8.57
2023-10-26T21:27:00.705Z,9.20
2023-10-26T21:29:28.061Z,9.30
2023-10-26T21:31:55.454Z,8.82
2023-10-26T21:34:23.083Z,8.85
2023-10-26T21:36:50.545Z,8.13
2023-10-26T21:39:17.922Z,7.82
2023-10-26T21:41:45.300Z,8.80
2023-10-26T21:44:12.697Z,7.57
2023-10-26T21:46:40.160Z,7.22
2023-10-26T21:49:07.803Z,7.47
2023-10-26T21:51:35.291Z,7.05
2023-10-26T21:54:02.710Z,6.55
2023-10-26T21:56:30.607Z,6.50
2023-10-26T21:58:58.310Z,6.18
2023-10-26T22:01:25.708Z,6.80
2023-10-26T22:04:12.001Z,6.75
2023-10-26T22:06:40.758Z,6.50
2023-10-26T22:09:08.114Z,6.25
2023-10-26T22:11:35.819Z,6.00
2023-10-26T22:14:03.310Z,5.13
2023-10-26T22:16:30.878Z,4.53
2023-10-26T22:18:58.570Z,6.00
2023-10-26T22:21:26.034Z,5.20
2023-10-26T22:23:55.159Z,4.25
2023-10-26T22:26:22.536Z,4.45
2023-10-26T22:28:50.177Z,4.55
2023-10-26T22:31:18.068Z,5.18
2023-10-26T22:33:47.812Z,6.03
2023-10-26T22:36:15.270Z,5.30
2023-10-26T22:38:42.649Z,5.50
2023-10-26T22:41:11.872Z,4.93
2023-10-26T22:43:39.474Z,4.93
2023-10-26T22:46:07.083Z,5.25
2023-10-26T22:48:34.509Z,4.85
2023-10-26T22:51:01.946Z,6.05
2023-10-26T22:53:29.364Z,5.90
2023-10-26T22:55:56.749Z,5.55
2023-10-26T22:58:24.205Z,6.07
2023-10-26T23:00:51.695Z,6.72
2023-10-26T23:03:19.243Z,5.78
2023-10-26T23:05:46.585Z,6.03
2023-10-26T23:08:15.648Z,6.60
2023-10-26T23:10:43.081Z,6.15
2023-10-26T23:13:10.479Z,6.20
2023-10-26T23:15:37.846Z,6.88
2023-10-26T23:18:05.403Z,6.05
2023-10-26T23:20:33.806Z,6.70
2023-10-26T23:23:01.213Z,6.50
2023-10-26T23:25:28.636Z,7.38
2023-10-26T23:27:56.096Z,6.75
2023-10-26T23:30:23.682Z,6.78
2023-10-26T23:32:52.076Z,7.95
2023-10-26T23:35:19.474Z,7.28
2023-10-26T23:37:46.881Z,7.72
2023-10-26T23:40:14.303Z,7.45
2023-10-26T23:42:41.672Z,6.75
2023-10-26T23:45:09.293Z,7.43
2023-10-26T23:47:36.667Z,8.27
2023-10-26T23:50:04.099Z,9.05
2023-10-26T23:52:31.689Z,7.45
2023-10-26T23:54:59.038Z,8.13
2023-10-26T23:57:26.558Z,8.05
2023-10-26T23:59:53.906Z,7.68
